This is the latest recevied weather packets stored in our database for station/object VE3VGJ. If no packets are shown the sender has not sent any weather packets the latest 10 day(s).
| Time | Temp. | Humidity | Pressure | Rain* | Wind** | Luminosity | Snow |
|---|---|---|---|---|---|---|---|
| 1777912228 | 15° C | 54% | 1004.3 hPa | 0 mm | - | 883 W/m² | - |
| 1777911924 | 15° C | 55% | 1004.6 hPa | 0 mm | - | 872 W/m² | - |
| 1777911620 | 15° C | 55% | 1004.4 hPa | 0 mm | - | 867 W/m² | - |
| 1777911316 | 15.56° C | 55% | 1004.5 hPa | 0 mm | - | 862 W/m² | - |
| 1777911015 | 15° C | 57% | 1004.4 hPa | 0 mm | - | 844 W/m² | - |
| 1777910712 | 15° C | 56% | 1004.3 hPa | 0 mm | - | 845 W/m² | - |
| 1777910408 | 15° C | 56% | 1004.7 hPa | 0 mm | - | 848 W/m² | - |
| 1777910104 | 14.44° C | 57% | 1004.6 hPa | 0 mm | - | 842 W/m² | - |
| 1777909802 | 15° C | 55% | 1004.6 hPa | 0 mm | - | 798 W/m² | - |
| 1777909498 | 14.44° C | 59% | 1004.7 hPa | 0 mm | - | 820 W/m² | - |
| 1777909196 | 13.89° C | 58% | 1005 hPa | 0 mm | - | 815 W/m² | - |
| 1777908894 | 13.89° C | 58% | 1004.5 hPa | 0 mm | - | 817 W/m² | - |
| 1777908591 | 13.89° C | 59% | 1004.6 hPa | 0 mm | - | 744 W/m² | - |
| 1777908288 | 13.89° C | 59% | 1004.7 hPa | 0 mm | - | 779 W/m² | - |
| 1777907984 | 13.89° C | 59% | 1004.7 hPa | 0 mm | - | 747 W/m² | - |
| 1777907680 | 13.89° C | 59% | 1005.1 hPa | 0 mm | - | 721 W/m² | - |
| 1777907375 | 13.89° C | 59% | 1004.9 hPa | 0 mm | - | 739 W/m² | - |
| 1777907072 | 13.89° C | 59% | 1005 hPa | 0 mm | - | 737 W/m² | - |
| 1777906770 | 13.33° C | 60% | 1004.8 hPa | 0 mm | - | 711 W/m² | - |
| 1777906466 | 12.78° C | 60% | 1004.8 hPa | 0 mm | - | 698 W/m² | - |
| 1777906163 | 12.78° C | 60% | 1005 hPa | 0 mm | - | 708 W/m² | - |
| 1777905860 | 12.78° C | 61% | 1004.9 hPa | 0 mm | - | 680 W/m² | - |
| 1777905556 | 13.33° C | 59% | 1004.9 hPa | 0 mm | - | 668 W/m² | - |
| 1777905254 | 12.78° C | 60% | 1005 hPa | 0 mm | - | 655 W/m² | - |
| 1777904950 | 12.78° C | 61% | 1004.7 hPa | 0 mm | - | 659 W/m² | - |
* Rain latest hour (hover to see other rain measurements)
** Current wind speed in m/s (hover to see current wind gust speed)